sensor_id;sensor_type;location;lat;lon;timestamp;temperature;humidity
33903;DHT22;20194;50.950;5.346;2023-05-10T00:01:49;14.60;90.40
33903;DHT22;20194;50.950;5.346;2023-05-10T00:04:14;14.50;90.80
33903;DHT22;20194;50.950;5.346;2023-05-10T00:06:40;14.70;90.90
33903;DHT22;20194;50.950;5.346;2023-05-10T00:09:06;14.70;90.30
33903;DHT22;20194;50.950;5.346;2023-05-10T00:11:31;14.70;89.90
33903;DHT22;20194;50.950;5.346;2023-05-10T00:13:57;14.80;90.20
33903;DHT22;20194;50.950;5.346;2023-05-10T00:16:23;14.60;90.10
33903;DHT22;20194;50.950;5.346;2023-05-10T00:18:49;14.70;90.10
33903;DHT22;20194;50.950;5.346;2023-05-10T00:21:14;14.50;90.00
33903;DHT22;20194;50.950;5.346;2023-05-10T00:23:40;14.50;90.20
33903;DHT22;20194;50.950;5.346;2023-05-10T00:26:06;14.40;90.80
33903;DHT22;20194;50.950;5.346;2023-05-10T00:28:31;14.50;90.50
33903;DHT22;20194;50.950;5.346;2023-05-10T00:30:57;14.70;90.40
33903;DHT22;20194;50.950;5.346;2023-05-10T00:33:23;14.80;89.30
33903;DHT22;20194;50.950;5.346;2023-05-10T00:35:48;14.80;88.50
33903;DHT22;20194;50.950;5.346;2023-05-10T00:38:14;14.80;88.80
33903;DHT22;20194;50.950;5.346;2023-05-10T00:40:40;14.80;88.10
33903;DHT22;20194;50.950;5.346;2023-05-10T00:43:06;14.50;89.20
33903;DHT22;20194;50.950;5.346;2023-05-10T00:45:32;14.50;90.70
33903;DHT22;20194;50.950;5.346;2023-05-10T00:48:00;14.30;90.60
33903;DHT22;20194;50.950;5.346;2023-05-10T00:50:28;14.20;91.00
33903;DHT22;20194;50.950;5.346;2023-05-10T00:52:54;14.20;91.50
33903;DHT22;20194;50.950;5.346;2023-05-10T00:55:21;14.10;91.40
33903;DHT22;20194;50.950;5.346;2023-05-10T00:57:47;13.90;91.60
33903;DHT22;20194;50.950;5.346;2023-05-10T01:00:13;14.00;92.10
33903;DHT22;20194;50.950;5.346;2023-05-10T01:02:44;14.00;92.10
33903;DHT22;20194;50.950;5.346;2023-05-10T01:05:11;14.00;91.80
33903;DHT22;20194;50.950;5.346;2023-05-10T01:07:37;14.00;92.00
33903;DHT22;20194;50.950;5.346;2023-05-10T01:10:04;14.10;91.70
33903;DHT22;20194;50.950;5.346;2023-05-10T01:12:30;14.20;91.60
33903;DHT22;20194;50.950;5.346;2023-05-10T01:14:56;14.10;91.00
33903;DHT22;20194;50.950;5.346;2023-05-10T01:17:23;14.20;91.30
33903;DHT22;20194;50.950;5.346;2023-05-10T01:19:49;14.30;90.80
33903;DHT22;20194;50.950;5.346;2023-05-10T01:25:23;14.20;91.00
33903;DHT22;20194;50.950;5.346;2023-05-10T01:36:23;14.20;90.80
33903;DHT22;20194;50.950;5.346;2023-05-10T01:44:26;14.10;90.80
33903;DHT22;20194;50.950;5.346;2023-05-10T01:47:04;14.20;90.80
33903;DHT22;20194;50.950;5.346;2023-05-10T01:49:36;14.10;90.00
33903;DHT22;20194;50.950;5.346;2023-05-10T01:52:13;13.90;90.70
33903;DHT22;20194;50.950;5.346;2023-05-10T01:54:44;14.00;90.90
33903;DHT22;20194;50.950;5.346;2023-05-10T01:57:13;14.00;90.60
33903;DHT22;20194;50.950;5.346;2023-05-10T01:59:40;14.00;90.60
33903;DHT22;20194;50.950;5.346;2023-05-10T02:02:09;14.00;90.80
33903;DHT22;20194;50.950;5.346;2023-05-10T02:04:39;14.10;90.50
33903;DHT22;20194;50.950;5.346;2023-05-10T02:07:06;14.00;90.20
33903;DHT22;20194;50.950;5.346;2023-05-10T02:09:32;14.00;90.50
33903;DHT22;20194;50.950;5.346;2023-05-10T02:12:00;13.90;90.30
33903;DHT22;20194;50.950;5.346;2023-05-10T02:14:30;13.80;90.70
33903;DHT22;20194;50.950;5.346;2023-05-10T02:16:58;13.70;91.20
33903;DHT22;20194;50.950;5.346;2023-05-10T02:19:25;13.60;91.90
33903;DHT22;20194;50.950;5.346;2023-05-10T02:21:52;13.60;91.60
33903;DHT22;20194;50.950;5.346;2023-05-10T02:24:20;13.60;91.60
33903;DHT22;20194;50.950;5.346;2023-05-10T02:26:47;13.60;91.70
33903;DHT22;20194;50.950;5.346;2023-05-10T02:29:15;13.60;91.60
33903;DHT22;20194;50.950;5.346;2023-05-10T02:31:42;13.60;91.60
33903;DHT22;20194;50.950;5.346;2023-05-10T02:34:09;13.60;91.90
33903;DHT22;20194;50.950;5.346;2023-05-10T02:36:36;13.70;91.80
33903;DHT22;20194;50.950;5.346;2023-05-10T02:39:03;13.70;91.40
33903;DHT22;20194;50.950;5.346;2023-05-10T02:41:31;13.70;91.60
33903;DHT22;20194;50.950;5.346;2023-05-10T02:43:59;13.70;91.70
33903;DHT22;20194;50.950;5.346;2023-05-10T02:46:26;13.70;91.20
33903;DHT22;20194;50.950;5.346;2023-05-10T02:48:52;13.80;91.50
33903;DHT22;20194;50.950;5.346;2023-05-10T02:51:19;13.90;91.10
33903;DHT22;20194;50.950;5.346;2023-05-10T02:53:48;14.00;90.70
33903;DHT22;20194;50.950;5.346;2023-05-10T02:56:25;14.00;90.50
33903;DHT22;20194;50.950;5.346;2023-05-10T02:58:51;14.00;91.20
33903;DHT22;20194;50.950;5.346;2023-05-10T03:01:18;13.90;90.40
33903;DHT22;20194;50.950;5.346;2023-05-10T03:03:43;13.90;90.90
33903;DHT22;20194;50.950;5.346;2023-05-10T03:06:09;13.90;90.70
33903;DHT22;20194;50.950;5.346;2023-05-10T03:08:35;13.80;90.80
33903;DHT22;20194;50.950;5.346;2023-05-10T03:14:04;13.70;91.60
33903;DHT22;20194;50.950;5.346;2023-05-10T03:16:47;13.80;91.20
33903;DHT22;20194;50.950;5.346;2023-05-10T03:19:27;13.70;91.10
33903;DHT22;20194;50.950;5.346;2023-05-10T03:21:53;13.60;91.50
33903;DHT22;20194;50.950;5.346;2023-05-10T03:24:23;13.60;91.50
33903;DHT22;20194;50.950;5.346;2023-05-10T03:26:51;13.60;91.70
33903;DHT22;20194;50.950;5.346;2023-05-10T03:29:20;13.50;91.80
33903;DHT22;20194;50.950;5.346;2023-05-10T03:31:47;13.50;92.00
33903;DHT22;20194;50.950;5.346;2023-05-10T03:34:13;13.40;92.30
33903;DHT22;20194;50.950;5.346;2023-05-10T03:36:39;13.60;92.10
33903;DHT22;20194;50.950;5.346;2023-05-10T03:39:04;13.60;91.70
33903;DHT22;20194;50.950;5.346;2023-05-10T03:41:30;13.70;91.50
33903;DHT22;20194;50.950;5.346;2023-05-10T03:43:56;13.80;91.60
33903;DHT22;20194;50.950;5.346;2023-05-10T03:46:22;13.90;91.20
33903;DHT22;20194;50.950;5.346;2023-05-10T03:48:47;13.90;90.90
33903;DHT22;20194;50.950;5.346;2023-05-10T03:51:13;13.90;90.80
33903;DHT22;20194;50.950;5.346;2023-05-10T03:53:39;13.90;90.90
33903;DHT22;20194;50.950;5.346;2023-05-10T03:56:04;13.90;91.00
33903;DHT22;20194;50.950;5.346;2023-05-10T03:58:30;13.90;90.90
33903;DHT22;20194;50.950;5.346;2023-05-10T04:00:56;14.00;90.60
33903;DHT22;20194;50.950;5.346;2023-05-10T04:03:21;14.00;90.70
33903;DHT22;20194;50.950;5.346;2023-05-10T04:05:47;14.00;90.80
33903;DHT22;20194;50.950;5.346;2023-05-10T04:08:13;14.00;90.70
33903;DHT22;20194;50.950;5.346;2023-05-10T04:10:40;14.10;90.60
33903;DHT22;20194;50.950;5.346;2023-05-10T04:13:05;14.10;90.20
33903;DHT22;20194;50.950;5.346;2023-05-10T04:15:32;14.20;89.90
33903;DHT22;20194;50.950;5.346;2023-05-10T04:17:57;14.30;90.00
33903;DHT22;20194;50.950;5.346;2023-05-10T04:20:23;14.30;88.80
33903;DHT22;20194;50.950;5.346;2023-05-10T04:22:49;14.30;89.00
33903;DHT22;20194;50.950;5.346;2023-05-10T04:25:15;14.30;89.30
33903;DHT22;20194;50.950;5.346;2023-05-10T04:27:40;14.30;89.20
33903;DHT22;20194;50.950;5.346;2023-05-10T04:30:07;14.30;88.70
33903;DHT22;20194;50.950;5.346;2023-05-10T04:32:33;14.10;89.20
33903;DHT22;20194;50.950;5.346;2023-05-10T04:34:58;14.10;90.20
33903;DHT22;20194;50.950;5.346;2023-05-10T04:37:24;14.10;90.20
33903;DHT22;20194;50.950;5.346;2023-05-10T04:39:50;13.80;90.60
33903;DHT22;20194;50.950;5.346;2023-05-10T04:42:15;13.70;91.40
33903;DHT22;20194;50.950;5.346;2023-05-10T04:44:41;13.80;91.70
33903;DHT22;20194;50.950;5.346;2023-05-10T04:47:07;13.80;91.40
33903;DHT22;20194;50.950;5.346;2023-05-10T04:49:32;13.80;91.40
33903;DHT22;20194;50.950;5.346;2023-05-10T04:51:58;13.70;91.50
33903;DHT22;20194;50.950;5.346;2023-05-10T04:54:24;13.80;91.70
33903;DHT22;20194;50.950;5.346;2023-05-10T04:56:50;14.00;91.60
33903;DHT22;20194;50.950;5.346;2023-05-10T04:59:16;14.10;91.20
33903;DHT22;20194;50.950;5.346;2023-05-10T05:01:43;14.20;90.80
33903;DHT22;20194;50.950;5.346;2023-05-10T05:04:08;13.90;90.40
33903;DHT22;20194;50.950;5.346;2023-05-10T05:06:34;13.60;91.30
33903;DHT22;20194;50.950;5.346;2023-05-10T05:08:59;13.60;91.70
33903;DHT22;20194;50.950;5.346;2023-05-10T05:11:25;13.60;91.90
33903;DHT22;20194;50.950;5.346;2023-05-10T05:13:51;13.60;91.70
33903;DHT22;20194;50.950;5.346;2023-05-10T05:16:17;13.60;91.70
33903;DHT22;20194;50.950;5.346;2023-05-10T05:18:42;13.50;91.70
33903;DHT22;20194;50.950;5.346;2023-05-10T05:21:15;13.60;92.00
33903;DHT22;20194;50.950;5.346;2023-05-10T05:23:41;13.60;91.70
33903;DHT22;20194;50.950;5.346;2023-05-10T05:26:07;13.70;91.50
33903;DHT22;20194;50.950;5.346;2023-05-10T05:28:33;13.70;91.40
33903;DHT22;20194;50.950;5.346;2023-05-10T05:31:05;13.60;91.10
33903;DHT22;20194;50.950;5.346;2023-05-10T05:33:33;13.50;91.70
33903;DHT22;20194;50.950;5.346;2023-05-10T05:36:01;13.50;91.80
33903;DHT22;20194;50.950;5.346;2023-05-10T05:38:27;13.50;92.20
33903;DHT22;20194;50.950;5.346;2023-05-10T05:40:53;13.50;91.80
33903;DHT22;20194;50.950;5.346;2023-05-10T05:43:19;13.60;92.00
33903;DHT22;20194;50.950;5.346;2023-05-10T05:45:44;13.80;91.70
33903;DHT22;20194;50.950;5.346;2023-05-10T05:48:10;13.90;90.80
33903;DHT22;20194;50.950;5.346;2023-05-10T05:50:35;13.80;90.60
33903;DHT22;20194;50.950;5.346;2023-05-10T05:53:01;13.70;91.00
33903;DHT22;20194;50.950;5.346;2023-05-10T05:55:27;13.80;91.00
33903;DHT22;20194;50.950;5.346;2023-05-10T05:57:53;13.80;91.00
33903;DHT22;20194;50.950;5.346;2023-05-10T06:00:19;13.80;90.70
33903;DHT22;20194;50.950;5.346;2023-05-10T06:02:46;13.90;90.90
33903;DHT22;20194;50.950;5.346;2023-05-10T06:05:12;14.00;90.90
33903;DHT22;20194;50.950;5.346;2023-05-10T06:07:39;14.20;90.40
33903;DHT22;20194;50.950;5.346;2023-05-10T06:10:08;14.30;89.60
33903;DHT22;20194;50.950;5.346;2023-05-10T06:12:34;14.20;89.50
33903;DHT22;20194;50.950;5.346;2023-05-10T06:15:00;14.00;89.70
33903;DHT22;20194;50.950;5.346;2023-05-10T06:17:26;14.10;90.70
33903;DHT22;20194;50.950;5.346;2023-05-10T06:19:51;14.20;90.00
33903;DHT22;20194;50.950;5.346;2023-05-10T06:22:18;14.00;89.80
33903;DHT22;20194;50.950;5.346;2023-05-10T06:24:43;14.10;90.30
33903;DHT22;20194;50.950;5.346;2023-05-10T06:27:09;14.10;90.90
33903;DHT22;20194;50.950;5.346;2023-05-10T06:29:35;14.20;90.50
33903;DHT22;20194;50.950;5.346;2023-05-10T06:32:01;14.30;90.20
33903;DHT22;20194;50.950;5.346;2023-05-10T06:34:27;14.40;89.30
33903;DHT22;20194;50.950;5.346;2023-05-10T06:36:53;14.40;88.40
33903;DHT22;20194;50.950;5.346;2023-05-10T06:39:18;14.40;88.90
33903;DHT22;20194;50.950;5.346;2023-05-10T06:41:44;14.30;88.40
33903;DHT22;20194;50.950;5.346;2023-05-10T06:44:10;14.20;89.70
33903;DHT22;20194;50.950;5.346;2023-05-10T06:46:36;14.20;89.80
33903;DHT22;20194;50.950;5.346;2023-05-10T06:49:01;14.20;90.30
33903;DHT22;20194;50.950;5.346;2023-05-10T06:51:27;14.10;89.80
33903;DHT22;20194;50.950;5.346;2023-05-10T06:53:53;14.00;90.30
33903;DHT22;20194;50.950;5.346;2023-05-10T06:56:20;13.80;90.70
33903;DHT22;20194;50.950;5.346;2023-05-10T06:58:47;13.80;91.40
33903;DHT22;20194;50.950;5.346;2023-05-10T07:01:14;13.80;91.30
33903;DHT22;20194;50.950;5.346;2023-05-10T07:03:39;13.60;91.50
33903;DHT22;20194;50.950;5.346;2023-05-10T07:06:05;13.60;91.90
33903;DHT22;20194;50.950;5.346;2023-05-10T07:08:33;13.70;91.80
33903;DHT22;20194;50.950;5.346;2023-05-10T07:11:03;13.70;91.70
33903;DHT22;20194;50.950;5.346;2023-05-10T07:13:31;13.70;91.60
33903;DHT22;20194;50.950;5.346;2023-05-10T07:15:57;13.90;91.70
33903;DHT22;20194;50.950;5.346;2023-05-10T07:18:24;13.90;91.00
33903;DHT22;20194;50.950;5.346;2023-05-10T07:20:50;13.90;91.30
33903;DHT22;20194;50.950;5.346;2023-05-10T07:23:16;14.10;91.10
33903;DHT22;20194;50.950;5.346;2023-05-10T07:25:48;14.20;90.60
33903;DHT22;20194;50.950;5.346;2023-05-10T07:28:15;14.20;90.40
33903;DHT22;20194;50.950;5.346;2023-05-10T07:30:41;14.00;90.50
33903;DHT22;20194;50.950;5.346;2023-05-10T07:33:08;14.00;91.00
33903;DHT22;20194;50.950;5.346;2023-05-10T07:35:35;13.90;91.30
33903;DHT22;20194;50.950;5.346;2023-05-10T07:38:01;14.00;91.50
33903;DHT22;20194;50.950;5.346;2023-05-10T07:40:27;14.00;91.20
33903;DHT22;20194;50.950;5.346;2023-05-10T07:42:53;13.90;91.40
33903;DHT22;20194;50.950;5.346;2023-05-10T07:45:19;14.00;91.80
33903;DHT22;20194;50.950;5.346;2023-05-10T07:47:45;14.00;91.80
33903;DHT22;20194;50.950;5.346;2023-05-10T07:50:10;14.00;91.40
33903;DHT22;20194;50.950;5.346;2023-05-10T07:52:36;14.00;91.30
33903;DHT22;20194;50.950;5.346;2023-05-10T07:55:02;13.90;91.20
33903;DHT22;20194;50.950;5.346;2023-05-10T07:57:28;13.80;91.50
33903;DHT22;20194;50.950;5.346;2023-05-10T07:59:54;13.90;91.90
33903;DHT22;20194;50.950;5.346;2023-05-10T08:02:19;14.00;91.90
33903;DHT22;20194;50.950;5.346;2023-05-10T08:04:45;14.20;91.70
33903;DHT22;20194;50.950;5.346;2023-05-10T08:07:11;14.00;90.80
33903;DHT22;20194;50.950;5.346;2023-05-10T08:09:36;14.00;91.30
33903;DHT22;20194;50.950;5.346;2023-05-10T08:12:02;14.10;91.20
33903;DHT22;20194;50.950;5.346;2023-05-10T08:14:29;14.20;91.20
33903;DHT22;20194;50.950;5.346;2023-05-10T08:16:55;14.30;90.90
33903;DHT22;20194;50.950;5.346;2023-05-10T08:19:21;14.30;90.10
33903;DHT22;20194;50.950;5.346;2023-05-10T08:21:48;14.20;90.40
33903;DHT22;20194;50.950;5.346;2023-05-10T08:24:14;14.20;90.50
33903;DHT22;20194;50.950;5.346;2023-05-10T08:26:40;13.90;90.00
33903;DHT22;20194;50.950;5.346;2023-05-10T08:29:06;13.80;90.70
33903;DHT22;20194;50.950;5.346;2023-05-10T08:31:32;13.70;90.40
33903;DHT22;20194;50.950;5.346;2023-05-10T08:33:57;13.60;90.70
33903;DHT22;20194;50.950;5.346;2023-05-10T08:36:23;13.40;91.20
33903;DHT22;20194;50.950;5.346;2023-05-10T08:38:53;13.30;91.20
33903;DHT22;20194;50.950;5.346;2023-05-10T08:41:20;13.30;91.90
33903;DHT22;20194;50.950;5.346;2023-05-10T08:43:47;13.30;91.80
33903;DHT22;20194;50.950;5.346;2023-05-10T08:46:18;13.30;91.90
33903;DHT22;20194;50.950;5.346;2023-05-10T08:48:47;13.40;91.90
33903;DHT22;20194;50.950;5.346;2023-05-10T08:51:17;13.40;91.90
33903;DHT22;20194;50.950;5.346;2023-05-10T08:53:44;13.40;91.40
33903;DHT22;20194;50.950;5.346;2023-05-10T08:56:10;13.50;91.50
33903;DHT22;20194;50.950;5.346;2023-05-10T08:58:36;13.40;91.40
33903;DHT22;20194;50.950;5.346;2023-05-10T09:01:04;13.40;91.60
33903;DHT22;20194;50.950;5.346;2023-05-10T09:03:31;13.50;91.70
33903;DHT22;20194;50.950;5.346;2023-05-10T09:05:57;13.50;91.00
33903;DHT22;20194;50.950;5.346;2023-05-10T09:08:26;13.40;91.30
33903;DHT22;20194;50.950;5.346;2023-05-10T09:10:52;13.40;91.20
33903;DHT22;20194;50.950;5.346;2023-05-10T09:13:19;13.30;91.40
33903;DHT22;20194;50.950;5.346;2023-05-10T09:15:45;13.40;91.50
33903;DHT22;20194;50.950;5.346;2023-05-10T09:18:11;13.40;91.60
33903;DHT22;20194;50.950;5.346;2023-05-10T09:20:37;13.30;91.90
33903;DHT22;20194;50.950;5.346;2023-05-10T09:23:03;13.40;92.10
33903;DHT22;20194;50.950;5.346;2023-05-10T09:25:29;13.60;92.10
33903;DHT22;20194;50.950;5.346;2023-05-10T09:27:55;13.60;91.90
33903;DHT22;20194;50.950;5.346;2023-05-10T09:30:28;13.60;91.90
33903;DHT22;20194;50.950;5.346;2023-05-10T09:32:54;13.60;91.80
33903;DHT22;20194;50.950;5.346;2023-05-10T09:35:26;13.60;91.80
33903;DHT22;20194;50.950;5.346;2023-05-10T09:37:53;13.70;91.90
33903;DHT22;20194;50.950;5.346;2023-05-10T09:40:21;13.80;91.90
33903;DHT22;20194;50.950;5.346;2023-05-10T09:45:29;13.70;91.90
33903;DHT22;20194;50.950;5.346;2023-05-10T09:47:56;13.80;91.50
33903;DHT22;20194;50.950;5.346;2023-05-10T09:50:23;13.80;91.50
33903;DHT22;20194;50.950;5.346;2023-05-10T09:52:49;13.80;91.50
33903;DHT22;20194;50.950;5.346;2023-05-10T09:55:23;13.90;91.80
33903;DHT22;20194;50.950;5.346;2023-05-10T09:57:59;14.00;91.80
33903;DHT22;20194;50.950;5.346;2023-05-10T10:00:25;14.10;91.70
33903;DHT22;20194;50.950;5.346;2023-05-10T10:02:56;14.20;91.80
33903;DHT22;20194;50.950;5.346;2023-05-10T10:05:38;14.20;91.20
33903;DHT22;20194;50.950;5.346;2023-05-10T10:08:05;14.30;91.60
33903;DHT22;20194;50.950;5.346;2023-05-10T10:10:32;14.20;91.30
33903;DHT22;20194;50.950;5.346;2023-05-10T10:12:58;14.30;91.20
33903;DHT22;20194;50.950;5.346;2023-05-10T10:15:25;14.40;91.20
33903;DHT22;20194;50.950;5.346;2023-05-10T10:17:52;14.30;90.90
33903;DHT22;20194;50.950;5.346;2023-05-10T10:20:19;14.20;91.10
33903;DHT22;20194;50.950;5.346;2023-05-10T10:22:46;14.20;90.70
33903;DHT22;20194;50.950;5.346;2023-05-10T10:25:15;14.20;90.90
33903;DHT22;20194;50.950;5.346;2023-05-10T10:35:41;14.50;90.50
33903;DHT22;20194;50.950;5.346;2023-05-10T10:38:08;14.40;90.70
33903;DHT22;20194;50.950;5.346;2023-05-10T10:40:34;14.50;90.90
33903;DHT22;20194;50.950;5.346;2023-05-10T10:43:26;14.50;90.90
33903;DHT22;20194;50.950;5.346;2023-05-10T10:46:17;14.50;90.70
33903;DHT22;20194;50.950;5.346;2023-05-10T10:48:50;14.60;89.80
33903;DHT22;20194;50.950;5.346;2023-05-10T10:51:37;14.70;88.80
33903;DHT22;20194;50.950;5.346;2023-05-10T10:54:11;14.90;86.10
33903;DHT22;20194;50.950;5.346;2023-05-10T10:56:37;14.90;86.70
33903;DHT22;20194;50.950;5.346;2023-05-10T10:59:03;14.80;88.40
33903;DHT22;20194;50.950;5.346;2023-05-10T11:01:35;14.60;90.10
33903;DHT22;20194;50.950;5.346;2023-05-10T11:06:35;14.50;89.70
33903;DHT22;20194;50.950;5.346;2023-05-10T11:09:11;14.70;90.50
33903;DHT22;20194;50.950;5.346;2023-05-10T11:11:53;14.70;89.60
33903;DHT22;20194;50.950;5.346;2023-05-10T11:14:21;14.70;89.80
33903;DHT22;20194;50.950;5.346;2023-05-10T11:16:47;14.60;88.90
33903;DHT22;20194;50.950;5.346;2023-05-10T11:19:14;14.50;88.80
33903;DHT22;20194;50.950;5.346;2023-05-10T11:24:30;14.70;90.40
33903;DHT22;20194;50.950;5.346;2023-05-10T11:26:56;14.80;87.10
33903;DHT22;20194;50.950;5.346;2023-05-10T11:29:22;14.70;86.70
33903;DHT22;20194;50.950;5.346;2023-05-10T11:31:49;14.80;86.80
33903;DHT22;20194;50.950;5.346;2023-05-10T11:34:24;14.80;86.00
33903;DHT22;20194;50.950;5.346;2023-05-10T11:36:52;14.80;86.70
33903;DHT22;20194;50.950;5.346;2023-05-10T11:39:19;14.90;84.30
33903;DHT22;20194;50.950;5.346;2023-05-10T11:41:48;15.00;83.90
33903;DHT22;20194;50.950;5.346;2023-05-10T11:44:14;15.20;84.20
33903;DHT22;20194;50.950;5.346;2023-05-10T11:46:40;15.20;80.10
33903;DHT22;20194;50.950;5.346;2023-05-10T11:49:07;15.30;82.60
33903;DHT22;20194;50.950;5.346;2023-05-10T11:51:36;15.50;82.90
33903;DHT22;20194;50.950;5.346;2023-05-10T11:54:06;15.60;80.30
33903;DHT22;20194;50.950;5.346;2023-05-10T11:56:33;15.70;79.60
33903;DHT22;20194;50.950;5.346;2023-05-10T11:59:00;15.80;79.60
33903;DHT22;20194;50.950;5.346;2023-05-10T12:01:28;15.90;76.80
33903;DHT22;20194;50.950;5.346;2023-05-10T12:03:55;15.60;76.40
33903;DHT22;20194;50.950;5.346;2023-05-10T12:06:26;15.70;76.70
33903;DHT22;20194;50.950;5.346;2023-05-10T12:08:52;15.80;75.40
33903;DHT22;20194;50.950;5.346;2023-05-10T12:11:19;15.80;76.00
33903;DHT22;20194;50.950;5.346;2023-05-10T12:13:47;15.80;79.20
33903;DHT22;20194;50.950;5.346;2023-05-10T12:16:18;15.70;79.40
33903;DHT22;20194;50.950;5.346;2023-05-10T12:18:44;15.70;79.00
33903;DHT22;20194;50.950;5.346;2023-05-10T12:21:11;15.60;81.30
33903;DHT22;20194;50.950;5.346;2023-05-10T12:23:38;15.40;80.00
33903;DHT22;20194;50.950;5.346;2023-05-10T12:26:05;15.40;81.30
33903;DHT22;20194;50.950;5.346;2023-05-10T12:28:32;15.30;79.10
33903;DHT22;20194;50.950;5.346;2023-05-10T12:30:59;15.10;80.60
33903;DHT22;20194;50.950;5.346;2023-05-10T12:33:25;15.10;80.50
33903;DHT22;20194;50.950;5.346;2023-05-10T12:35:54;15.10;81.90
33903;DHT22;20194;50.950;5.346;2023-05-10T12:38:28;15.20;82.00
33903;DHT22;20194;50.950;5.346;2023-05-10T12:41:06;15.30;82.50
33903;DHT22;20194;50.950;5.346;2023-05-10T12:43:32;15.30;83.10
33903;DHT22;20194;50.950;5.346;2023-05-10T12:45:58;15.40;82.90
33903;DHT22;20194;50.950;5.346;2023-05-10T12:48:29;15.40;82.00
33903;DHT22;20194;50.950;5.346;2023-05-10T12:50:56;15.40;81.60
33903;DHT22;20194;50.950;5.346;2023-05-10T12:53:22;15.50;81.50
33903;DHT22;20194;50.950;5.346;2023-05-10T12:55:48;15.60;80.00
33903;DHT22;20194;50.950;5.346;2023-05-10T12:58:14;15.60;78.00
33903;DHT22;20194;50.950;5.346;2023-05-10T13:00:39;15.50;80.70
33903;DHT22;20194;50.950;5.346;2023-05-10T13:03:05;15.50;82.80
33903;DHT22;20194;50.950;5.346;2023-05-10T13:05:34;15.40;80.10
33903;DHT22;20194;50.950;5.346;2023-05-10T13:07:59;15.20;78.10
33903;DHT22;20194;50.950;5.346;2023-05-10T13:10:25;15.10;80.40
33903;DHT22;20194;50.950;5.346;2023-05-10T13:12:51;15.10;80.60
33903;DHT22;20194;50.950;5.346;2023-05-10T13:15:17;15.10;79.70
33903;DHT22;20194;50.950;5.346;2023-05-10T13:17:43;15.20;81.20
33903;DHT22;20194;50.950;5.346;2023-05-10T13:20:09;15.30;79.90
33903;DHT22;20194;50.950;5.346;2023-05-10T13:22:35;15.40;81.70
33903;DHT22;20194;50.950;5.346;2023-05-10T13:25:01;15.50;80.50
33903;DHT22;20194;50.950;5.346;2023-05-10T13:27:27;15.50;77.30
33903;DHT22;20194;50.950;5.346;2023-05-10T13:29:53;15.60;78.10
33903;DHT22;20194;50.950;5.346;2023-05-10T13:32:18;15.60;76.90
33903;DHT22;20194;50.950;5.346;2023-05-10T13:34:45;15.50;73.70
33903;DHT22;20194;50.950;5.346;2023-05-10T13:37:10;15.60;74.60
33903;DHT22;20194;50.950;5.346;2023-05-10T13:39:36;15.70;74.30
33903;DHT22;20194;50.950;5.346;2023-05-10T13:42:05;15.80;74.30
33903;DHT22;20194;50.950;5.346;2023-05-10T13:44:30;15.80;72.80
33903;DHT22;20194;50.950;5.346;2023-05-10T13:46:56;15.90;72.00
33903;DHT22;20194;50.950;5.346;2023-05-10T13:49:22;15.90;69.10
33903;DHT22;20194;50.950;5.346;2023-05-10T13:51:48;15.90;71.90
33903;DHT22;20194;50.950;5.346;2023-05-10T13:54:14;16.00;72.40
33903;DHT22;20194;50.950;5.346;2023-05-10T13:56:41;16.00;69.00
33903;DHT22;20194;50.950;5.346;2023-05-10T13:59:07;16.10;68.90
33903;DHT22;20194;50.950;5.346;2023-05-10T14:01:33;16.00;70.30
33903;DHT22;20194;50.950;5.346;2023-05-10T14:03:59;16.00;67.20
33903;DHT22;20194;50.950;5.346;2023-05-10T14:06:25;15.90;66.80
33903;DHT22;20194;50.950;5.346;2023-05-10T14:08:52;15.90;68.30
33903;DHT22;20194;50.950;5.346;2023-05-10T14:11:19;15.90;68.60
33903;DHT22;20194;50.950;5.346;2023-05-10T14:13:45;15.90;69.60
33903;DHT22;20194;50.950;5.346;2023-05-10T14:16:10;16.00;68.50
33903;DHT22;20194;50.950;5.346;2023-05-10T14:18:37;16.00;67.90
33903;DHT22;20194;50.950;5.346;2023-05-10T14:21:04;16.10;70.00
33903;DHT22;20194;50.950;5.346;2023-05-10T14:23:30;16.00;67.30
33903;DHT22;20194;50.950;5.346;2023-05-10T14:25:55;16.00;71.70
33903;DHT22;20194;50.950;5.346;2023-05-10T14:28:21;16.00;72.70
33903;DHT22;20194;50.950;5.346;2023-05-10T14:30:48;16.00;75.70
33903;DHT22;20194;50.950;5.346;2023-05-10T14:33:15;16.00;77.90
33903;DHT22;20194;50.950;5.346;2023-05-10T14:35:41;16.20;75.50
33903;DHT22;20194;50.950;5.346;2023-05-10T14:38:06;16.20;74.30
33903;DHT22;20194;50.950;5.346;2023-05-10T14:40:32;16.30;73.50
33903;DHT22;20194;50.950;5.346;2023-05-10T14:42:58;16.30;73.70
33903;DHT22;20194;50.950;5.346;2023-05-10T14:45:24;16.40;71.30
33903;DHT22;20194;50.950;5.346;2023-05-10T14:47:50;16.30;70.80
33903;DHT22;20194;50.950;5.346;2023-05-10T14:50:16;16.40;70.90
33903;DHT22;20194;50.950;5.346;2023-05-10T14:52:44;16.50;69.80
33903;DHT22;20194;50.950;5.346;2023-05-10T14:55:11;16.50;72.10
33903;DHT22;20194;50.950;5.346;2023-05-10T14:57:36;16.50;65.50
33903;DHT22;20194;50.950;5.346;2023-05-10T15:00:03;16.50;67.20
33903;DHT22;20194;50.950;5.346;2023-05-10T15:02:30;16.50;63.90
33903;DHT22;20194;50.950;5.346;2023-05-10T15:04:56;16.40;62.50
33903;DHT22;20194;50.950;5.346;2023-05-10T15:07:23;16.50;61.50
33903;DHT22;20194;50.950;5.346;2023-05-10T15:09:49;16.60;59.70
33903;DHT22;20194;50.950;5.346;2023-05-10T15:12:15;16.70;60.50
33903;DHT22;20194;50.950;5.346;2023-05-10T15:14:41;16.80;57.80
33903;DHT22;20194;50.950;5.346;2023-05-10T15:17:07;16.90;56.30
33903;DHT22;20194;50.950;5.346;2023-05-10T15:19:33;16.90;59.60
33903;DHT22;20194;50.950;5.346;2023-05-10T15:21:58;16.80;60.00
33903;DHT22;20194;50.950;5.346;2023-05-10T15:24:25;16.90;60.00
33903;DHT22;20194;50.950;5.346;2023-05-10T15:26:50;17.00;58.90
33903;DHT22;20194;50.950;5.346;2023-05-10T15:29:16;16.80;54.00
33903;DHT22;20194;50.950;5.346;2023-05-10T15:31:48;16.70;49.70
33903;DHT22;20194;50.950;5.346;2023-05-10T15:34:16;16.60;52.60
33903;DHT22;20194;50.950;5.346;2023-05-10T15:36:42;16.70;54.60
33903;DHT22;20194;50.950;5.346;2023-05-10T15:39:08;16.70;53.50
33903;DHT22;20194;50.950;5.346;2023-05-10T15:41:38;16.70;52.00
33903;DHT22;20194;50.950;5.346;2023-05-10T15:44:03;16.70;48.30
33903;DHT22;20194;50.950;5.346;2023-05-10T15:46:30;16.80;49.90
33903;DHT22;20194;50.950;5.346;2023-05-10T15:48:57;16.90;53.60
33903;DHT22;20194;50.950;5.346;2023-05-10T15:51:23;16.90;51.40
33903;DHT22;20194;50.950;5.346;2023-05-10T15:53:49;16.90;50.50
33903;DHT22;20194;50.950;5.346;2023-05-10T15:56:14;16.90;52.40
33903;DHT22;20194;50.950;5.346;2023-05-10T15:58:40;16.80;49.10
33903;DHT22;20194;50.950;5.346;2023-05-10T16:01:06;16.80;50.20
33903;DHT22;20194;50.950;5.346;2023-05-10T16:03:33;16.90;51.00
33903;DHT22;20194;50.950;5.346;2023-05-10T16:05:59;16.80;49.20